createdAt,value
2023-10-18T00:00:00.465Z,8.7
2023-10-18T00:05:00.448Z,8.6
2023-10-18T00:10:00.505Z,8.6
2023-10-18T00:15:00.428Z,8.5
2023-10-18T00:20:00.448Z,8.5
2023-10-18T00:25:00.512Z,8.4
2023-10-18T00:30:00.478Z,8.2
2023-10-18T00:35:00.432Z,8.3
2023-10-18T00:40:00.487Z,8.3
2023-10-18T00:45:00.452Z,8.4
2023-10-18T00:50:00.465Z,8.4
2023-10-18T00:55:00.562Z,8.4
2023-10-18T01:00:00.445Z,8.3
2023-10-18T01:05:00.441Z,8.2
2023-10-18T01:10:00.570Z,8.4
2023-10-18T01:15:00.430Z,8.1
2023-10-18T01:20:00.420Z,8.0
2023-10-18T01:25:00.533Z,7.9
2023-10-18T01:30:00.445Z,8.0
2023-10-18T01:35:00.445Z,8.1
2023-10-18T01:40:00.550Z,8.0
2023-10-18T01:45:00.438Z,7.9
2023-10-18T01:50:00.526Z,7.9
2023-10-18T01:55:00.511Z,7.4
2023-10-18T02:00:00.421Z,6.9
2023-10-18T02:05:00.516Z,6.4
2023-10-18T02:10:00.699Z,6.7
2023-10-18T02:15:00.432Z,6.8
2023-10-18T02:20:00.428Z,6.6
2023-10-18T02:25:00.525Z,6.6
2023-10-18T02:30:00.436Z,6.6
2023-10-18T02:35:00.434Z,6.8
2023-10-18T02:40:05.560Z,6.6
2023-10-18T02:45:00.429Z,6.8
2023-10-18T02:50:00.418Z,6.8
2023-10-18T02:55:00.541Z,6.8
2023-10-18T03:00:00.422Z,7.0
2023-10-18T03:05:00.398Z,7.1
2023-10-18T03:10:00.553Z,6.6
2023-10-18T03:15:00.404Z,6.5
2023-10-18T03:20:00.413Z,6.8
2023-10-18T03:25:00.990Z,6.8
2023-10-18T03:30:00.419Z,6.8
2023-10-18T03:35:00.438Z,6.8
2023-10-18T03:40:00.686Z,6.4
2023-10-18T03:45:00.428Z,6.4
2023-10-18T03:50:00.406Z,6.2
2023-10-18T03:55:00.484Z,6.4
2023-10-18T04:00:00.399Z,6.6
2023-10-18T04:05:00.396Z,6.2
2023-10-18T04:10:00.729Z,6.1
2023-10-18T04:15:00.409Z,6.0
2023-10-18T04:20:00.413Z,5.9
2023-10-18T04:25:00.530Z,6.1
2023-10-18T04:30:02.043Z,5.7
2023-10-18T04:35:00.382Z,5.6
2023-10-18T04:40:00.525Z,5.7
2023-10-18T04:45:00.485Z,6.0
2023-10-18T04:50:00.388Z,5.9
2023-10-18T04:55:00.527Z,6.2
2023-10-18T05:00:00.473Z,6.1
2023-10-18T05:05:01.165Z,5.8
2023-10-18T05:10:00.758Z,5.9
2023-10-18T05:15:00.395Z,6.0
2023-10-18T05:20:00.399Z,6.2
2023-10-18T05:25:00.438Z,6.4
2023-10-18T05:30:00.410Z,6.4
2023-10-18T05:35:12.647Z,6.3
2023-10-18T05:40:00.721Z,6.3
2023-10-18T05:45:00.421Z,6.5
2023-10-18T05:50:00.395Z,6.5
2023-10-18T05:55:00.452Z,6.5
2023-10-18T06:00:00.395Z,6.5
2023-10-18T06:05:00.393Z,6.4
2023-10-18T06:10:00.500Z,5.9
2023-10-18T06:15:00.401Z,6.0
2023-10-18T06:20:00.604Z,5.7
2023-10-18T06:25:00.441Z,6.0
2023-10-18T06:30:00.405Z,6.4
2023-10-18T06:35:00.439Z,6.7
2023-10-18T06:40:00.508Z,6.8
2023-10-18T06:45:00.395Z,6.6
2023-10-18T06:50:15.334Z,6.7
2023-10-18T06:55:00.540Z,6.9
2023-10-18T07:00:00.405Z,7.2
2023-10-18T07:05:00.442Z,7.5
2023-10-18T07:10:00.476Z,7.4
2023-10-18T07:15:00.415Z,7.6
2023-10-18T07:20:00.426Z,7.8
2023-10-18T07:25:00.456Z,7.9
2023-10-18T07:30:00.400Z,8.1
2023-10-18T07:35:00.451Z,7.8
2023-10-18T07:40:00.534Z,8.4
2023-10-18T07:45:00.406Z,8.5
2023-10-18T07:50:00.445Z,8.4
2023-10-18T07:55:00.482Z,8.7
2023-10-18T08:00:00.503Z,8.9
2023-10-18T08:05:01.019Z,9.1
2023-10-18T08:10:00.593Z,9.2
2023-10-18T08:15:00.411Z,9.5
2023-10-18T08:20:00.489Z,9.5
2023-10-18T08:25:00.522Z,9.5
2023-10-18T08:30:00.415Z,9.7
2023-10-18T08:35:00.616Z,9.8
2023-10-18T08:40:00.458Z,9.6
2023-10-18T08:45:00.411Z,10.0
2023-10-18T08:50:00.451Z,10.3
2023-10-18T08:55:00.496Z,9.9
2023-10-18T09:00:00.395Z,10.1
2023-10-18T09:05:00.597Z,10.6
2023-10-18T09:10:00.520Z,10.9
2023-10-18T09:15:00.388Z,10.9
2023-10-18T09:20:00.421Z,10.9
2023-10-18T09:25:00.446Z,11.2
2023-10-18T09:30:00.408Z,11.1
2023-10-18T09:35:00.425Z,10.8
2023-10-18T09:40:00.480Z,10.8
2023-10-18T09:45:00.401Z,10.9
2023-10-18T09:50:00.469Z,11.2
2023-10-18T09:55:00.467Z,11.4
2023-10-18T10:00:00.399Z,11.2
2023-10-18T10:05:00.419Z,11.5
2023-10-18T10:10:00.454Z,11.5
2023-10-18T10:15:00.401Z,12.0
2023-10-18T10:20:00.435Z,11.3
2023-10-18T10:25:12.200Z,11.7
2023-10-18T10:30:00.423Z,11.7
2023-10-18T10:35:00.423Z,12.3
2023-10-18T10:40:00.456Z,12.2
2023-10-18T10:45:00.412Z,12.6
2023-10-18T10:50:00.494Z,12.9
2023-10-18T10:55:00.649Z,12.9
2023-10-18T11:00:00.417Z,12.2
2023-10-18T11:05:00.482Z,12.4
2023-10-18T11:10:00.455Z,12.1
2023-10-18T11:15:00.427Z,11.9
2023-10-18T11:20:00.939Z,12.2
2023-10-18T11:25:00.469Z,11.8
2023-10-18T11:30:00.510Z,12.5
2023-10-18T11:35:00.408Z,12.4
2023-10-18T11:40:00.517Z,12.4
2023-10-18T11:45:00.429Z,12.4
2023-10-18T11:50:00.418Z,12.3
2023-10-18T11:55:00.443Z,12.3
2023-10-18T12:00:00.488Z,12.2
2023-10-18T12:05:00.518Z,12.5
2023-10-18T12:10:00.535Z,12.3
2023-10-18T12:15:00.419Z,12.3
2023-10-18T12:20:00.392Z,12.5
2023-10-18T12:25:00.522Z,12.2
2023-10-18T12:30:00.450Z,12.1
2023-10-18T12:35:00.396Z,12.2
2023-10-18T12:40:00.653Z,11.9
2023-10-18T12:45:00.426Z,12.4
2023-10-18T12:50:00.460Z,12.2
2023-10-18T12:55:00.507Z,11.8
2023-10-18T13:00:00.438Z,12.2
2023-10-18T13:05:00.426Z,12.1
2023-10-18T13:10:00.508Z,12.2
2023-10-18T13:15:00.408Z,12.1
2023-10-18T13:20:03.119Z,12.1
2023-10-18T13:25:00.443Z,11.6
2023-10-18T13:30:00.418Z,12.1
2023-10-18T13:35:00.470Z,13.0
2023-10-18T13:40:00.481Z,13.1
2023-10-18T13:45:00.405Z,13.0
2023-10-18T13:50:00.542Z,13.0
2023-10-18T13:55:00.434Z,12.4
2023-10-18T14:00:00.444Z,12.0
2023-10-18T14:05:00.441Z,11.7
2023-10-18T14:10:00.462Z,11.8
2023-10-18T14:15:00.437Z,11.7
2023-10-18T14:20:12.508Z,11.7
2023-10-18T14:25:00.470Z,11.7
2023-10-18T14:30:00.440Z,11.7
2023-10-18T14:35:00.471Z,11.7
2023-10-18T14:40:00.422Z,11.7
2023-10-18T14:45:00.398Z,11.5
2023-10-18T14:50:00.511Z,11.4
2023-10-18T14:55:00.445Z,11.4
2023-10-18T15:00:00.408Z,11.4
2023-10-18T15:05:00.428Z,11.4
2023-10-18T15:10:00.459Z,11.3
2023-10-18T15:15:00.399Z,11.2
2023-10-18T15:20:00.635Z,11.2
2023-10-18T15:25:00.431Z,11.1
2023-10-18T15:30:00.403Z,11.1
2023-10-18T15:35:01.035Z,11.1
2023-10-18T15:40:00.456Z,10.9
2023-10-18T15:45:00.429Z,10.9
2023-10-18T15:50:00.445Z,10.7
2023-10-18T15:55:00.450Z,10.8
2023-10-18T16:00:00.415Z,10.8
2023-10-18T16:05:00.525Z,10.9
2023-10-18T16:10:00.425Z,10.7
2023-10-18T16:15:00.450Z,10.8
2023-10-18T16:20:00.430Z,10.6
2023-10-18T16:25:00.409Z,10.5
2023-10-18T16:30:00.435Z,10.4
2023-10-18T16:35:00.473Z,10.5
2023-10-18T16:40:00.529Z,10.5
2023-10-18T16:45:00.429Z,10.3
2023-10-18T16:50:12.653Z,10.2
2023-10-18T16:55:00.423Z,10.1
2023-10-18T17:00:00.470Z,10.0
2023-10-18T17:05:00.386Z,10.0
2023-10-18T17:10:00.588Z,10.1
2023-10-18T17:15:00.432Z,10.1
2023-10-18T17:20:00.402Z,10.1
2023-10-18T17:25:00.426Z,9.9
2023-10-18T17:30:00.425Z,9.8
2023-10-18T17:35:00.408Z,9.9
2023-10-18T17:40:00.436Z,9.8
2023-10-18T17:45:00.437Z,9.8
2023-10-18T17:50:00.414Z,9.7
2023-10-18T17:55:00.494Z,9.9
2023-10-18T18:00:00.509Z,9.7
2023-10-18T18:05:00.401Z,9.7
2023-10-18T18:10:00.671Z,9.8
2023-10-18T18:15:00.457Z,9.8
2023-10-18T18:20:00.406Z,9.6
2023-10-18T18:25:00.429Z,9.5
2023-10-18T18:30:00.450Z,9.5
2023-10-18T18:35:00.427Z,9.4
2023-10-18T18:40:00.459Z,9.4
2023-10-18T18:45:00.628Z,9.3
2023-10-18T18:50:00.413Z,9.4
2023-10-18T18:55:00.426Z,9.4
2023-10-18T19:00:00.394Z,9.5
2023-10-18T19:05:00.454Z,9.3
2023-10-18T19:10:00.446Z,9.3
2023-10-18T19:15:00.426Z,9.4
2023-10-18T19:20:00.446Z,9.4
2023-10-18T19:25:00.451Z,9.5
2023-10-18T19:30:00.425Z,9.4
2023-10-18T19:35:00.452Z,9.4
2023-10-18T19:40:00.447Z,9.4
2023-10-18T19:45:00.412Z,9.4
2023-10-18T19:50:00.490Z,9.3
2023-10-18T19:55:00.432Z,9.3
2023-10-18T20:00:00.502Z,9.2
2023-10-18T20:05:00.468Z,9.2
2023-10-18T20:10:00.431Z,9.3
2023-10-18T20:15:00.459Z,9.4
2023-10-18T20:20:00.450Z,9.2
2023-10-18T20:25:00.482Z,9.3
2023-10-18T20:30:00.464Z,9.3
2023-10-18T20:35:00.416Z,9.2
2023-10-18T20:40:03.878Z,9.2
2023-10-18T20:45:00.405Z,9.2
2023-10-18T20:50:00.428Z,9.2
2023-10-18T20:55:00.550Z,9.2
2023-10-18T21:00:00.416Z,9.1
2023-10-18T21:05:00.419Z,9.2
2023-10-18T21:10:00.730Z,9.1
2023-10-18T21:15:00.411Z,9.7
2023-10-18T21:20:00.424Z,9.6
2023-10-18T21:25:00.436Z,9.3
2023-10-18T21:30:00.406Z,9.2
2023-10-18T21:35:00.399Z,9.1
2023-10-18T21:40:00.420Z,9.0
2023-10-18T21:45:00.406Z,9.0
2023-10-18T21:50:00.390Z,9.0
2023-10-18T21:55:00.440Z,8.7
2023-10-18T22:00:00.413Z,8.8
2023-10-18T22:05:00.391Z,8.8
2023-10-18T22:10:00.435Z,8.7
2023-10-18T22:15:00.425Z,8.8
2023-10-18T22:20:00.529Z,8.6
2023-10-18T22:25:00.440Z,8.6
2023-10-18T22:30:00.423Z,8.6
2023-10-18T22:35:00.514Z,8.6
2023-10-18T22:40:00.596Z,8.6
2023-10-18T22:45:00.394Z,8.5
2023-10-18T22:50:00.454Z,8.5
2023-10-18T22:55:00.488Z,8.5
2023-10-18T23:00:00.402Z,8.5
2023-10-18T23:05:00.457Z,8.4
2023-10-18T23:10:00.489Z,8.3
2023-10-18T23:15:00.402Z,8.3
2023-10-18T23:20:00.486Z,8.4
2023-10-18T23:25:00.442Z,8.5
2023-10-18T23:30:00.429Z,8.4
2023-10-18T23:35:00.462Z,8.4
2023-10-18T23:40:00.628Z,8.4
2023-10-18T23:45:00.421Z,8.4
2023-10-18T23:50:00.446Z,8.5
2023-10-18T23:55:00.502Z,8.6
